sensor_id;sensor_type;location;lat;lon;timestamp;P1;durP1;ratioP1;P2;durP2;ratioP2
21213;SDS011;10764;50.850;2.904;2022-11-21T00:00:58;2.10;;;0.80;;
21213;SDS011;10764;50.850;2.904;2022-11-21T00:03:25;3.22;;;0.93;;
21213;SDS011;10764;50.850;2.904;2022-11-21T00:05:52;3.08;;;0.82;;
21213;SDS011;10764;50.850;2.904;2022-11-21T00:08:19;1.75;;;0.70;;
21213;SDS011;10764;50.850;2.904;2022-11-21T00:10:46;2.53;;;0.70;;
21213;SDS011;10764;50.850;2.904;2022-11-21T00:13:16;1.83;;;0.70;;
21213;SDS011;10764;50.850;2.904;2022-11-21T00:15:44;3.58;;;0.90;;
21213;SDS011;10764;50.850;2.904;2022-11-21T00:18:11;2.55;;;0.88;;
21213;SDS011;10764;50.850;2.904;2022-11-21T00:20:39;2.45;;;0.80;;
21213;SDS011;10764;50.850;2.904;2022-11-21T00:23:07;2.60;;;0.82;;
21213;SDS011;10764;50.850;2.904;2022-11-21T00:25:34;1.67;;;0.80;;
21213;SDS011;10764;50.850;2.904;2022-11-21T00:28:02;3.15;;;0.90;;
21213;SDS011;10764;50.850;2.904;2022-11-21T00:30:29;2.80;;;0.70;;
21213;SDS011;10764;50.850;2.904;2022-11-21T00:32:59;4.50;;;0.95;;
21213;SDS011;10764;50.850;2.904;2022-11-21T00:35:26;1.80;;;0.60;;
21213;SDS011;10764;50.850;2.904;2022-11-21T00:37:53;2.50;;;0.70;;
21213;SDS011;10764;50.850;2.904;2022-11-21T00:40:20;3.30;;;0.87;;
21213;SDS011;10764;50.850;2.904;2022-11-21T00:42:47;2.42;;;0.90;;
21213;SDS011;10764;50.850;2.904;2022-11-21T00:45:13;1.70;;;0.65;;
21213;SDS011;10764;50.850;2.904;2022-11-21T00:47:48;2.38;;;0.70;;
21213;SDS011;10764;50.850;2.904;2022-11-21T00:50:14;3.35;;;0.70;;
21213;SDS011;10764;50.850;2.904;2022-11-21T00:52:41;2.37;;;0.70;;
21213;SDS011;10764;50.850;2.904;2022-11-21T00:55:08;1.40;;;0.50;;
21213;SDS011;10764;50.850;2.904;2022-11-21T00:57:35;1.67;;;0.60;;
21213;SDS011;10764;50.850;2.904;2022-11-21T01:00:02;2.35;;;0.70;;
21213;SDS011;10764;50.850;2.904;2022-11-21T01:02:30;1.92;;;0.70;;
21213;SDS011;10764;50.850;2.904;2022-11-21T01:04:58;1.95;;;0.70;;
21213;SDS011;10764;50.850;2.904;2022-11-21T01:07:24;2.05;;;0.68;;
21213;SDS011;10764;50.850;2.904;2022-11-21T01:09:51;1.90;;;0.70;;
21213;SDS011;10764;50.850;2.904;2022-11-21T01:12:18;2.25;;;0.80;;
21213;SDS011;10764;50.850;2.904;2022-11-21T01:14:45;2.53;;;0.68;;
21213;SDS011;10764;50.850;2.904;2022-11-21T01:17:12;1.83;;;0.60;;
21213;SDS011;10764;50.850;2.904;2022-11-21T01:19:38;1.40;;;0.60;;
21213;SDS011;10764;50.850;2.904;2022-11-21T01:22:05;2.13;;;0.70;;
21213;SDS011;10764;50.850;2.904;2022-11-21T01:24:32;1.88;;;0.60;;
21213;SDS011;10764;50.850;2.904;2022-11-21T01:26:59;1.33;;;0.60;;
21213;SDS011;10764;50.850;2.904;2022-11-21T01:29:26;2.60;;;0.53;;
21213;SDS011;10764;50.850;2.904;2022-11-21T01:31:53;1.73;;;0.52;;
21213;SDS011;10764;50.850;2.904;2022-11-21T01:34:20;1.80;;;0.60;;
21213;SDS011;10764;50.850;2.904;2022-11-21T01:36:47;2.33;;;0.50;;
21213;SDS011;10764;50.850;2.904;2022-11-21T01:39:14;1.80;;;0.50;;
21213;SDS011;10764;50.850;2.904;2022-11-21T01:41:43;1.55;;;0.60;;
21213;SDS011;10764;50.850;2.904;2022-11-21T01:44:16;2.05;;;0.60;;
21213;SDS011;10764;50.850;2.904;2022-11-21T01:46:48;2.00;;;0.68;;
21213;SDS011;10764;50.850;2.904;2022-11-21T01:49:16;2.03;;;0.70;;
21213;SDS011;10764;50.850;2.904;2022-11-21T01:52:19;2.87;;;1.00;;
21213;SDS011;10764;50.850;2.904;2022-11-21T02:02:51;2.30;;;0.90;;
21213;SDS011;10764;50.850;2.904;2022-11-21T02:05:22;1.55;;;0.75;;
21213;SDS011;10764;50.850;2.904;2022-11-21T02:07:56;2.22;;;0.80;;
21213;SDS011;10764;50.850;2.904;2022-11-21T02:10:27;1.90;;;0.70;;
21213;SDS011;10764;50.850;2.904;2022-11-21T02:12:54;2.85;;;0.70;;
21213;SDS011;10764;50.850;2.904;2022-11-21T02:15:25;1.98;;;0.60;;
21213;SDS011;10764;50.850;2.904;2022-11-21T02:17:53;2.00;;;0.55;;
21213;SDS011;10764;50.850;2.904;2022-11-21T02:20:24;2.33;;;0.75;;
21213;SDS011;10764;50.850;2.904;2022-11-21T02:25:42;2.65;;;0.82;;
21213;SDS011;10764;50.850;2.904;2022-11-21T02:28:14;1.25;;;0.65;;
21213;SDS011;10764;50.850;2.904;2022-11-21T02:30:42;2.13;;;0.60;;
21213;SDS011;10764;50.850;2.904;2022-11-21T02:33:10;1.67;;;0.57;;
21213;SDS011;10764;50.850;2.904;2022-11-21T02:35:38;1.90;;;0.60;;
21213;SDS011;10764;50.850;2.904;2022-11-21T02:38:08;2.50;;;0.60;;
21213;SDS011;10764;50.850;2.904;2022-11-21T02:40:47;1.50;;;0.50;;
21213;SDS011;10764;50.850;2.904;2022-11-21T02:43:38;1.90;;;0.67;;
21213;SDS011;10764;50.850;2.904;2022-11-21T02:46:10;2.22;;;0.70;;
21213;SDS011;10764;50.850;2.904;2022-11-21T02:48:37;3.30;;;0.77;;
21213;SDS011;10764;50.850;2.904;2022-11-21T02:51:04;1.60;;;0.55;;
21213;SDS011;10764;50.850;2.904;2022-11-21T02:53:31;2.90;;;0.50;;
21213;SDS011;10764;50.850;2.904;2022-11-21T02:55:58;1.35;;;0.50;;
21213;SDS011;10764;50.850;2.904;2022-11-21T02:58:25;2.20;;;0.60;;
21213;SDS011;10764;50.850;2.904;2022-11-21T03:00:52;1.50;;;0.60;;
21213;SDS011;10764;50.850;2.904;2022-11-21T03:03:20;2.10;;;0.60;;
21213;SDS011;10764;50.850;2.904;2022-11-21T03:05:47;1.77;;;0.60;;
21213;SDS011;10764;50.850;2.904;2022-11-21T03:08:14;2.28;;;0.57;;
21213;SDS011;10764;50.850;2.904;2022-11-21T03:10:41;2.65;;;0.60;;
21213;SDS011;10764;50.850;2.904;2022-11-21T03:13:08;1.17;;;0.45;;
21213;SDS011;10764;50.850;2.904;2022-11-21T03:15:34;1.98;;;0.50;;
21213;SDS011;10764;50.850;2.904;2022-11-21T03:18:01;2.13;;;0.60;;
21213;SDS011;10764;50.850;2.904;2022-11-21T03:20:29;2.40;;;0.50;;
21213;SDS011;10764;50.850;2.904;2022-11-21T03:22:57;1.73;;;0.60;;
21213;SDS011;10764;50.850;2.904;2022-11-21T03:25:24;1.83;;;0.60;;
21213;SDS011;10764;50.850;2.904;2022-11-21T03:27:51;2.00;;;0.57;;
21213;SDS011;10764;50.850;2.904;2022-11-21T03:30:19;3.03;;;0.80;;
21213;SDS011;10764;50.850;2.904;2022-11-21T03:32:47;1.58;;;0.52;;
21213;SDS011;10764;50.850;2.904;2022-11-21T03:35:14;1.53;;;0.60;;
21213;SDS011;10764;50.850;2.904;2022-11-21T03:37:42;2.83;;;0.73;;
21213;SDS011;10764;50.850;2.904;2022-11-21T03:40:08;1.85;;;0.60;;
21213;SDS011;10764;50.850;2.904;2022-11-21T03:42:36;0.80;;;0.32;;
21213;SDS011;10764;50.850;2.904;2022-11-21T03:45:03;1.77;;;0.60;;
21213;SDS011;10764;50.850;2.904;2022-11-21T03:47:30;2.00;;;0.60;;
21213;SDS011;10764;50.850;2.904;2022-11-21T03:49:57;2.60;;;0.55;;
21213;SDS011;10764;50.850;2.904;2022-11-21T03:52:23;2.30;;;0.60;;
21213;SDS011;10764;50.850;2.904;2022-11-21T03:54:50;2.35;;;0.70;;
21213;SDS011;10764;50.850;2.904;2022-11-21T03:57:17;1.27;;;0.50;;
21213;SDS011;10764;50.850;2.904;2022-11-21T03:59:44;1.70;;;0.60;;
21213;SDS011;10764;50.850;2.904;2022-11-21T04:02:10;2.13;;;0.60;;
21213;SDS011;10764;50.850;2.904;2022-11-21T04:04:37;2.35;;;0.70;;
21213;SDS011;10764;50.850;2.904;2022-11-21T04:07:04;1.27;;;0.50;;
21213;SDS011;10764;50.850;2.904;2022-11-21T04:09:31;1.15;;;0.60;;
21213;SDS011;10764;50.850;2.904;2022-11-21T04:11:58;1.08;;;0.47;;
21213;SDS011;10764;50.850;2.904;2022-11-21T04:14:32;1.45;;;0.50;;
21213;SDS011;10764;50.850;2.904;2022-11-21T04:16:59;1.23;;;0.50;;
21213;SDS011;10764;50.850;2.904;2022-11-21T04:19:26;2.13;;;0.50;;
21213;SDS011;10764;50.850;2.904;2022-11-21T04:21:53;1.57;;;0.60;;
21213;SDS011;10764;50.850;2.904;2022-11-21T04:24:19;1.83;;;0.50;;
21213;SDS011;10764;50.850;2.904;2022-11-21T04:26:46;1.67;;;0.60;;
21213;SDS011;10764;50.850;2.904;2022-11-21T04:29:13;2.47;;;0.63;;
21213;SDS011;10764;50.850;2.904;2022-11-21T04:31:40;1.65;;;0.60;;
21213;SDS011;10764;50.850;2.904;2022-11-21T04:34:07;1.77;;;0.50;;
21213;SDS011;10764;50.850;2.904;2022-11-21T04:36:33;2.37;;;0.70;;
21213;SDS011;10764;50.850;2.904;2022-11-21T04:39:00;1.17;;;0.50;;
21213;SDS011;10764;50.850;2.904;2022-11-21T04:41:27;1.52;;;0.50;;
21213;SDS011;10764;50.850;2.904;2022-11-21T04:43:54;1.13;;;0.52;;
21213;SDS011;10764;50.850;2.904;2022-11-21T04:46:21;1.00;;;0.40;;
21213;SDS011;10764;50.850;2.904;2022-11-21T04:48:48;1.73;;;0.60;;
21213;SDS011;10764;50.850;2.904;2022-11-21T04:51:14;1.83;;;0.60;;
21213;SDS011;10764;50.850;2.904;2022-11-21T04:53:42;1.50;;;0.50;;
21213;SDS011;10764;50.850;2.904;2022-11-21T04:56:09;2.27;;;0.60;;
21213;SDS011;10764;50.850;2.904;2022-11-21T04:58:36;2.10;;;0.70;;
21213;SDS011;10764;50.850;2.904;2022-11-21T05:01:06;1.27;;;0.70;;
21213;SDS011;10764;50.850;2.904;2022-11-21T05:03:34;1.58;;;0.68;;
21213;SDS011;10764;50.850;2.904;2022-11-21T05:06:02;1.70;;;0.70;;
21213;SDS011;10764;50.850;2.904;2022-11-21T05:08:29;1.50;;;0.40;;
21213;SDS011;10764;50.850;2.904;2022-11-21T05:10:55;2.28;;;0.70;;
21213;SDS011;10764;50.850;2.904;2022-11-21T05:13:41;1.67;;;0.68;;
21213;SDS011;10764;50.850;2.904;2022-11-21T05:16:08;1.70;;;0.63;;
21213;SDS011;10764;50.850;2.904;2022-11-21T05:18:35;1.58;;;0.47;;
21213;SDS011;10764;50.850;2.904;2022-11-21T05:21:02;1.75;;;0.60;;
21213;SDS011;10764;50.850;2.904;2022-11-21T05:23:29;1.40;;;0.60;;
21213;SDS011;10764;50.850;2.904;2022-11-21T05:25:56;1.98;;;0.60;;
21213;SDS011;10764;50.850;2.904;2022-11-21T05:28:22;1.88;;;0.60;;
21213;SDS011;10764;50.850;2.904;2022-11-21T05:30:50;1.65;;;0.60;;
21213;SDS011;10764;50.850;2.904;2022-11-21T05:33:17;1.38;;;0.52;;
21213;SDS011;10764;50.850;2.904;2022-11-21T05:35:44;1.35;;;0.50;;
21213;SDS011;10764;50.850;2.904;2022-11-21T05:38:11;1.67;;;0.60;;
21213;SDS011;10764;50.850;2.904;2022-11-21T05:40:38;1.92;;;0.60;;
21213;SDS011;10764;50.850;2.904;2022-11-21T05:43:05;2.95;;;0.55;;
21213;SDS011;10764;50.850;2.904;2022-11-21T05:45:51;2.63;;;0.60;;
21213;SDS011;10764;50.850;2.904;2022-11-21T05:48:18;1.88;;;0.70;;
21213;SDS011;10764;50.850;2.904;2022-11-21T05:50:48;2.17;;;0.63;;
21213;SDS011;10764;50.850;2.904;2022-11-21T05:53:15;1.60;;;0.60;;
21213;SDS011;10764;50.850;2.904;2022-11-21T05:55:42;2.35;;;0.68;;
21213;SDS011;10764;50.850;2.904;2022-11-21T05:58:10;2.83;;;0.70;;
21213;SDS011;10764;50.850;2.904;2022-11-21T06:00:37;2.40;;;0.65;;
21213;SDS011;10764;50.850;2.904;2022-11-21T06:03:04;1.83;;;0.68;;
21213;SDS011;10764;50.850;2.904;2022-11-21T06:05:50;2.05;;;0.60;;
21213;SDS011;10764;50.850;2.904;2022-11-21T06:08:17;1.98;;;0.68;;
21213;SDS011;10764;50.850;2.904;2022-11-21T06:10:44;1.85;;;0.65;;
21213;SDS011;10764;50.850;2.904;2022-11-21T06:13:11;1.77;;;0.50;;
21213;SDS011;10764;50.850;2.904;2022-11-21T06:15:53;1.60;;;0.73;;
21213;SDS011;10764;50.850;2.904;2022-11-21T06:18:24;2.92;;;0.70;;
21213;SDS011;10764;50.850;2.904;2022-11-21T06:20:51;1.20;;;0.60;;
21213;SDS011;10764;50.850;2.904;2022-11-21T06:23:18;1.77;;;0.80;;
21213;SDS011;10764;50.850;2.904;2022-11-21T06:25:45;2.78;;;0.70;;
21213;SDS011;10764;50.850;2.904;2022-11-21T06:28:12;2.45;;;0.73;;
21213;SDS011;10764;50.850;2.904;2022-11-21T06:30:39;2.50;;;0.65;;
21213;SDS011;10764;50.850;2.904;2022-11-21T06:33:06;1.80;;;0.60;;
21213;SDS011;10764;50.850;2.904;2022-11-21T06:35:35;2.08;;;0.65;;
21213;SDS011;10764;50.850;2.904;2022-11-21T06:38:03;2.40;;;0.70;;
21213;SDS011;10764;50.850;2.904;2022-11-21T06:40:30;2.53;;;0.70;;
21213;SDS011;10764;50.850;2.904;2022-11-21T06:42:57;1.90;;;0.70;;
21213;SDS011;10764;50.850;2.904;2022-11-21T06:45:24;4.07;;;0.70;;
21213;SDS011;10764;50.850;2.904;2022-11-21T06:47:51;2.10;;;0.60;;
21213;SDS011;10764;50.850;2.904;2022-11-21T06:50:18;3.70;;;0.70;;
21213;SDS011;10764;50.850;2.904;2022-11-21T06:52:44;2.03;;;0.60;;
21213;SDS011;10764;50.850;2.904;2022-11-21T06:55:11;1.83;;;0.60;;
21213;SDS011;10764;50.850;2.904;2022-11-21T06:57:38;1.70;;;0.70;;
21213;SDS011;10764;50.850;2.904;2022-11-21T07:00:05;3.53;;;1.00;;
21213;SDS011;10764;50.850;2.904;2022-11-21T07:02:34;3.00;;;0.70;;
21213;SDS011;10764;50.850;2.904;2022-11-21T07:05:01;2.15;;;0.63;;
21213;SDS011;10764;50.850;2.904;2022-11-21T07:07:27;2.30;;;0.75;;
21213;SDS011;10764;50.850;2.904;2022-11-21T07:09:55;2.00;;;0.70;;
21213;SDS011;10764;50.850;2.904;2022-11-21T07:12:22;1.73;;;0.60;;
21213;SDS011;10764;50.850;2.904;2022-11-21T07:15:08;2.30;;;0.70;;
21213;SDS011;10764;50.850;2.904;2022-11-21T07:17:35;1.48;;;0.63;;
21213;SDS011;10764;50.850;2.904;2022-11-21T07:20:02;1.20;;;0.50;;
21213;SDS011;10764;50.850;2.904;2022-11-21T07:22:29;4.90;;;0.82;;
21213;SDS011;10764;50.850;2.904;2022-11-21T07:24:56;3.10;;;0.65;;
21213;SDS011;10764;50.850;2.904;2022-11-21T07:27:23;1.98;;;0.70;;
21213;SDS011;10764;50.850;2.904;2022-11-21T07:29:50;2.67;;;0.70;;
21213;SDS011;10764;50.850;2.904;2022-11-21T07:32:17;2.00;;;0.70;;
21213;SDS011;10764;50.850;2.904;2022-11-21T07:34:43;3.45;;;0.70;;
21213;SDS011;10764;50.850;2.904;2022-11-21T07:37:10;3.47;;;0.70;;
21213;SDS011;10764;50.850;2.904;2022-11-21T07:39:37;1.88;;;0.60;;
21213;SDS011;10764;50.850;2.904;2022-11-21T07:42:04;1.92;;;0.60;;
21213;SDS011;10764;50.850;2.904;2022-11-21T07:44:31;2.33;;;0.80;;
21213;SDS011;10764;50.850;2.904;2022-11-21T07:46:57;1.88;;;0.70;;
21213;SDS011;10764;50.850;2.904;2022-11-21T07:49:24;2.53;;;0.80;;
21213;SDS011;10764;50.850;2.904;2022-11-21T07:51:52;2.25;;;0.80;;
21213;SDS011;10764;50.850;2.904;2022-11-21T07:54:19;2.45;;;0.80;;
21213;SDS011;10764;50.850;2.904;2022-11-21T07:56:46;3.00;;;0.80;;
21213;SDS011;10764;50.850;2.904;2022-11-21T07:59:12;4.15;;;0.93;;
21213;SDS011;10764;50.850;2.904;2022-11-21T08:01:39;7.60;;;1.13;;
21213;SDS011;10764;50.850;2.904;2022-11-21T08:04:11;5.45;;;1.10;;
21213;SDS011;10764;50.850;2.904;2022-11-21T08:06:38;5.78;;;1.15;;
21213;SDS011;10764;50.850;2.904;2022-11-21T08:09:05;5.65;;;1.30;;
21213;SDS011;10764;50.850;2.904;2022-11-21T08:11:33;5.63;;;1.37;;
21213;SDS011;10764;50.850;2.904;2022-11-21T08:14:01;5.68;;;1.10;;
21213;SDS011;10764;50.850;2.904;2022-11-21T08:16:28;5.63;;;1.10;;
21213;SDS011;10764;50.850;2.904;2022-11-21T08:18:58;2.85;;;1.08;;
21213;SDS011;10764;50.850;2.904;2022-11-21T08:21:25;7.28;;;1.40;;
21213;SDS011;10764;50.850;2.904;2022-11-21T08:23:52;3.20;;;0.87;;
21213;SDS011;10764;50.850;2.904;2022-11-21T08:26:20;7.70;;;1.10;;
21213;SDS011;10764;50.850;2.904;2022-11-21T08:28:46;5.50;;;1.20;;
21213;SDS011;10764;50.850;2.904;2022-11-21T08:31:13;5.53;;;1.08;;
21213;SDS011;10764;50.850;2.904;2022-11-21T08:33:40;4.38;;;1.17;;
21213;SDS011;10764;50.850;2.904;2022-11-21T08:36:07;4.45;;;1.27;;
21213;SDS011;10764;50.850;2.904;2022-11-21T08:38:35;5.43;;;1.02;;
21213;SDS011;10764;50.850;2.904;2022-11-21T08:41:02;3.50;;;1.02;;
21213;SDS011;10764;50.850;2.904;2022-11-21T08:43:47;5.88;;;1.20;;
21213;SDS011;10764;50.850;2.904;2022-11-21T08:46:14;3.43;;;1.20;;
21213;SDS011;10764;50.850;2.904;2022-11-21T08:48:42;3.67;;;1.20;;
21213;SDS011;10764;50.850;2.904;2022-11-21T08:51:08;3.10;;;1.10;;
21213;SDS011;10764;50.850;2.904;2022-11-21T08:53:35;3.95;;;1.52;;
21213;SDS011;10764;50.850;2.904;2022-11-21T08:56:02;4.57;;;1.23;;
21213;SDS011;10764;50.850;2.904;2022-11-21T08:58:30;4.00;;;1.10;;
21213;SDS011;10764;50.850;2.904;2022-11-21T09:00:57;3.85;;;1.20;;
21213;SDS011;10764;50.850;2.904;2022-11-21T09:03:25;4.70;;;1.40;;
21213;SDS011;10764;50.850;2.904;2022-11-21T09:05:57;3.30;;;1.33;;
21213;SDS011;10764;50.850;2.904;2022-11-21T09:08:25;3.33;;;1.38;;
21213;SDS011;10764;50.850;2.904;2022-11-21T09:10:52;3.25;;;1.50;;
21213;SDS011;10764;50.850;2.904;2022-11-21T09:13:18;4.97;;;1.60;;
21213;SDS011;10764;50.850;2.904;2022-11-21T09:15:45;3.35;;;1.50;;
21213;SDS011;10764;50.850;2.904;2022-11-21T09:18:31;4.28;;;1.10;;
21213;SDS011;10764;50.850;2.904;2022-11-21T09:20:57;3.40;;;1.17;;
21213;SDS011;10764;50.850;2.904;2022-11-21T09:23:24;2.88;;;1.20;;
21213;SDS011;10764;50.850;2.904;2022-11-21T09:25:51;3.57;;;1.20;;
21213;SDS011;10764;50.850;2.904;2022-11-21T09:28:18;4.05;;;1.40;;
21213;SDS011;10764;50.850;2.904;2022-11-21T09:30:45;4.22;;;1.27;;
21213;SDS011;10764;50.850;2.904;2022-11-21T09:33:13;3.92;;;1.50;;
21213;SDS011;10764;50.850;2.904;2022-11-21T09:35:42;3.03;;;1.30;;
21213;SDS011;10764;50.850;2.904;2022-11-21T09:38:09;6.07;;;1.20;;
21213;SDS011;10764;50.850;2.904;2022-11-21T09:40:36;3.75;;;1.50;;
21213;SDS011;10764;50.850;2.904;2022-11-21T09:45:51;3.33;;;1.58;;
21213;SDS011;10764;50.850;2.904;2022-11-21T09:48:29;4.05;;;1.33;;
21213;SDS011;10764;50.850;2.904;2022-11-21T09:51:19;3.25;;;1.60;;
21213;SDS011;10764;50.850;2.904;2022-11-21T09:53:50;4.47;;;1.63;;
21213;SDS011;10764;50.850;2.904;2022-11-21T09:56:24;4.00;;;1.67;;
21213;SDS011;10764;50.850;2.904;2022-11-21T10:01:55;4.53;;;1.50;;
21213;SDS011;10764;50.850;2.904;2022-11-21T10:04:22;4.93;;;1.60;;
21213;SDS011;10764;50.850;2.904;2022-11-21T10:07:16;7.00;;;1.80;;
21213;SDS011;10764;50.850;2.904;2022-11-21T10:20:46;4.70;;;1.90;;
21213;SDS011;10764;50.850;2.904;2022-11-21T10:26:20;5.13;;;1.70;;
21213;SDS011;10764;50.850;2.904;2022-11-21T10:28:58;4.40;;;1.70;;
21213;SDS011;10764;50.850;2.904;2022-11-21T10:31:30;3.58;;;1.73;;
21213;SDS011;10764;50.850;2.904;2022-11-21T10:34:03;2.63;;;1.50;;
21213;SDS011;10764;50.850;2.904;2022-11-21T10:36:42;4.40;;;1.73;;
21213;SDS011;10764;50.850;2.904;2022-11-21T10:39:21;3.97;;;1.60;;
21213;SDS011;10764;50.850;2.904;2022-11-21T10:44:35;4.57;;;1.75;;
21213;SDS011;10764;50.850;2.904;2022-11-21T10:47:21;3.65;;;1.55;;
21213;SDS011;10764;50.850;2.904;2022-11-21T10:49:56;3.25;;;1.50;;
21213;SDS011;10764;50.850;2.904;2022-11-21T10:52:52;3.33;;;1.70;;
21213;SDS011;10764;50.850;2.904;2022-11-21T10:56:00;4.78;;;1.80;;
21213;SDS011;10764;50.850;2.904;2022-11-21T10:58:52;3.35;;;1.52;;
21213;SDS011;10764;50.850;2.904;2022-11-21T11:01:24;3.80;;;1.70;;
21213;SDS011;10764;50.850;2.904;2022-11-21T11:04:34;2.88;;;1.55;;
21213;SDS011;10764;50.850;2.904;2022-11-21T11:07:20;3.77;;;1.70;;
21213;SDS011;10764;50.850;2.904;2022-11-21T11:10:20;3.63;;;1.55;;
21213;SDS011;10764;50.850;2.904;2022-11-21T11:12:53;4.05;;;1.60;;
21213;SDS011;10764;50.850;2.904;2022-11-21T11:18:31;5.40;;;1.85;;
21213;SDS011;10764;50.850;2.904;2022-11-21T11:29:16;3.63;;;1.70;;
21213;SDS011;10764;50.850;2.904;2022-11-21T11:34:25;3.75;;;1.60;;
21213;SDS011;10764;50.850;2.904;2022-11-21T11:37:20;4.05;;;1.80;;
21213;SDS011;10764;50.850;2.904;2022-11-21T11:40:13;5.15;;;2.10;;
21213;SDS011;10764;50.850;2.904;2022-11-21T11:45:40;3.85;;;1.55;;
21213;SDS011;10764;50.850;2.904;2022-11-21T11:48:36;4.88;;;1.98;;
21213;SDS011;10764;50.850;2.904;2022-11-21T11:51:28;3.53;;;1.88;;
21213;SDS011;10764;50.850;2.904;2022-11-21T11:54:00;3.88;;;1.55;;
21213;SDS011;10764;50.850;2.904;2022-11-21T11:56:33;4.72;;;1.80;;
21213;SDS011;10764;50.850;2.904;2022-11-21T11:59:18;6.00;;;1.97;;
21213;SDS011;10764;50.850;2.904;2022-11-21T12:05:06;5.03;;;1.85;;
21213;SDS011;10764;50.850;2.904;2022-11-21T12:07:37;4.50;;;1.70;;
21213;SDS011;10764;50.850;2.904;2022-11-21T12:11:12;4.83;;;1.83;;
21213;SDS011;10764;50.850;2.904;2022-11-21T12:13:40;4.38;;;1.80;;
21213;SDS011;10764;50.850;2.904;2022-11-21T12:16:09;3.90;;;1.60;;
21213;SDS011;10764;50.850;2.904;2022-11-21T12:18:54;2.83;;;1.50;;
21213;SDS011;10764;50.850;2.904;2022-11-21T12:21:35;4.22;;;1.85;;
21213;SDS011;10764;50.850;2.904;2022-11-21T12:24:02;6.33;;;1.63;;
21213;SDS011;10764;50.850;2.904;2022-11-21T12:41:36;8.82;;;2.42;;
21213;SDS011;10764;50.850;2.904;2022-11-21T12:44:41;7.57;;;2.10;;
21213;SDS011;10764;50.850;2.904;2022-11-21T12:50:40;10.18;;;2.17;;
21213;SDS011;10764;50.850;2.904;2022-11-21T12:57:00;7.28;;;1.95;;
21213;SDS011;10764;50.850;2.904;2022-11-21T13:05:53;7.15;;;2.10;;
21213;SDS011;10764;50.850;2.904;2022-11-21T13:08:27;5.80;;;1.77;;
21213;SDS011;10764;50.850;2.904;2022-11-21T13:11:06;5.43;;;1.70;;
21213;SDS011;10764;50.850;2.904;2022-11-21T13:14:03;4.07;;;1.45;;
21213;SDS011;10764;50.850;2.904;2022-11-21T13:16:41;6.95;;;1.98;;
21213;SDS011;10764;50.850;2.904;2022-11-21T13:19:18;5.97;;;1.97;;
21213;SDS011;10764;50.850;2.904;2022-11-21T13:21:53;5.73;;;1.70;;
21213;SDS011;10764;50.850;2.904;2022-11-21T13:27:34;5.47;;;1.63;;
21213;SDS011;10764;50.850;2.904;2022-11-21T13:45:59;5.85;;;1.90;;
21213;SDS011;10764;50.850;2.904;2022-11-21T14:05:42;53.78;;;6.55;;
21213;SDS011;10764;50.850;2.904;2022-11-21T14:10:47;11.98;;;3.05;;
21213;SDS011;10764;50.850;2.904;2022-11-21T14:16:16;10.93;;;2.63;;
21213;SDS011;10764;50.850;2.904;2022-11-21T14:18:36;10.52;;;2.60;;
21213;SDS011;10764;50.850;2.904;2022-11-21T14:23:38;12.18;;;2.60;;
21213;SDS011;10764;50.850;2.904;2022-11-21T14:26:11;7.68;;;2.30;;
21213;SDS011;10764;50.850;2.904;2022-11-21T14:28:40;6.53;;;1.90;;
21213;SDS011;10764;50.850;2.904;2022-11-21T14:31:08;5.82;;;1.90;;
21213;SDS011;10764;50.850;2.904;2022-11-21T14:33:44;6.82;;;2.03;;
21213;SDS011;10764;50.850;2.904;2022-11-21T14:39:27;6.75;;;2.25;;
21213;SDS011;10764;50.850;2.904;2022-11-21T14:41:55;7.68;;;2.00;;
21213;SDS011;10764;50.850;2.904;2022-11-21T14:44:27;5.95;;;1.92;;
21213;SDS011;10764;50.850;2.904;2022-11-21T14:47:17;6.97;;;2.05;;
21213;SDS011;10764;50.850;2.904;2022-11-21T14:49:53;7.03;;;1.92;;
21213;SDS011;10764;50.850;2.904;2022-11-21T14:55:02;7.23;;;2.00;;
21213;SDS011;10764;50.850;2.904;2022-11-21T14:57:52;5.03;;;1.67;;
21213;SDS011;10764;50.850;2.904;2022-11-21T15:00:22;5.50;;;1.80;;
21213;SDS011;10764;50.850;2.904;2022-11-21T15:03:18;5.75;;;1.92;;
21213;SDS011;10764;50.850;2.904;2022-11-21T15:05:48;5.55;;;1.92;;
21213;SDS011;10764;50.850;2.904;2022-11-21T15:08:34;6.13;;;1.83;;
21213;SDS011;10764;50.850;2.904;2022-11-21T15:11:37;4.80;;;2.10;;
21213;SDS011;10764;50.850;2.904;2022-11-21T15:19:25;6.63;;;1.80;;
21213;SDS011;10764;50.850;2.904;2022-11-21T15:21:58;4.50;;;1.70;;
21213;SDS011;10764;50.850;2.904;2022-11-21T15:30:02;5.68;;;1.67;;
21213;SDS011;10764;50.850;2.904;2022-11-21T15:41:02;5.05;;;1.77;;
21213;SDS011;10764;50.850;2.904;2022-11-21T15:43:47;6.15;;;1.77;;
21213;SDS011;10764;50.850;2.904;2022-11-21T15:46:29;3.92;;;1.52;;
21213;SDS011;10764;50.850;2.904;2022-11-21T15:49:13;4.13;;;1.70;;
21213;SDS011;10764;50.850;2.904;2022-11-21T15:52:06;4.72;;;1.60;;
21213;SDS011;10764;50.850;2.904;2022-11-21T15:54:38;5.43;;;1.73;;
21213;SDS011;10764;50.850;2.904;2022-11-21T15:57:09;5.60;;;1.70;;
21213;SDS011;10764;50.850;2.904;2022-11-21T15:59:38;5.25;;;1.38;;
21213;SDS011;10764;50.850;2.904;2022-11-21T16:04:41;5.57;;;1.60;;
21213;SDS011;10764;50.850;2.904;2022-11-21T16:07:12;5.53;;;1.60;;
21213;SDS011;10764;50.850;2.904;2022-11-21T16:09:38;5.25;;;1.90;;
21213;SDS011;10764;50.850;2.904;2022-11-21T16:12:08;5.55;;;1.42;;
21213;SDS011;10764;50.850;2.904;2022-11-21T16:14:37;5.40;;;1.63;;
21213;SDS011;10764;50.850;2.904;2022-11-21T16:17:04;4.27;;;1.40;;
21213;SDS011;10764;50.850;2.904;2022-11-21T16:19:31;4.18;;;1.25;;
21213;SDS011;10764;50.850;2.904;2022-11-21T16:21:59;5.28;;;1.70;;
21213;SDS011;10764;50.850;2.904;2022-11-21T16:24:27;3.67;;;1.30;;
21213;SDS011;10764;50.850;2.904;2022-11-21T16:29:28;4.85;;;1.45;;
21213;SDS011;10764;50.850;2.904;2022-11-21T16:32:01;7.15;;;1.60;;
21213;SDS011;10764;50.850;2.904;2022-11-21T16:37:16;3.13;;;1.15;;
21213;SDS011;10764;50.850;2.904;2022-11-21T16:39:43;5.55;;;1.55;;
21213;SDS011;10764;50.850;2.904;2022-11-21T16:42:17;4.60;;;1.40;;
21213;SDS011;10764;50.850;2.904;2022-11-21T16:44:50;3.80;;;1.33;;
21213;SDS011;10764;50.850;2.904;2022-11-21T16:47:17;3.80;;;1.23;;
21213;SDS011;10764;50.850;2.904;2022-11-21T16:49:48;3.72;;;1.30;;
21213;SDS011;10764;50.850;2.904;2022-11-21T16:52:16;6.32;;;1.50;;
21213;SDS011;10764;50.850;2.904;2022-11-21T16:54:52;3.38;;;1.20;;
21213;SDS011;10764;50.850;2.904;2022-11-21T16:57:20;4.60;;;1.33;;
21213;SDS011;10764;50.850;2.904;2022-11-21T16:59:51;4.10;;;1.40;;
21213;SDS011;10764;50.850;2.904;2022-11-21T17:02:23;4.60;;;1.60;;
21213;SDS011;10764;50.850;2.904;2022-11-21T17:04:52;5.10;;;1.42;;
21213;SDS011;10764;50.850;2.904;2022-11-21T17:07:21;4.20;;;1.10;;
21213;SDS011;10764;50.850;2.904;2022-11-21T17:09:48;4.38;;;1.50;;
21213;SDS011;10764;50.850;2.904;2022-11-21T17:12:19;4.78;;;1.73;;
21213;SDS011;10764;50.850;2.904;2022-11-21T17:14:49;3.50;;;1.30;;
21213;SDS011;10764;50.850;2.904;2022-11-21T17:17:22;4.80;;;1.35;;
21213;SDS011;10764;50.850;2.904;2022-11-21T17:19:54;4.32;;;1.52;;
21213;SDS011;10764;50.850;2.904;2022-11-21T17:22:22;5.13;;;1.25;;
21213;SDS011;10764;50.850;2.904;2022-11-21T17:24:53;4.68;;;1.48;;
21213;SDS011;10764;50.850;2.904;2022-11-21T17:27:30;3.42;;;1.08;;
21213;SDS011;10764;50.850;2.904;2022-11-21T17:32:29;3.85;;;1.35;;
21213;SDS011;10764;50.850;2.904;2022-11-21T17:39:03;3.60;;;1.17;;
21213;SDS011;10764;50.850;2.904;2022-11-21T17:45:22;3.45;;;1.17;;
21213;SDS011;10764;50.850;2.904;2022-11-21T17:48:00;4.07;;;1.25;;
21213;SDS011;10764;50.850;2.904;2022-11-21T17:50:28;5.25;;;1.70;;
21213;SDS011;10764;50.850;2.904;2022-11-21T17:52:58;2.58;;;1.10;;
21213;SDS011;10764;50.850;2.904;2022-11-21T17:55:27;4.00;;;1.30;;
21213;SDS011;10764;50.850;2.904;2022-11-21T17:57:54;4.63;;;1.42;;
21213;SDS011;10764;50.850;2.904;2022-11-21T18:00:26;3.60;;;1.17;;